Seal — PB4599 — position and weather

sailwx.info

Track history (hours):
 
Tides and Currents Weather Stations Pressure Air Temp Water Temp Dewpoint Dewpoint Depression Visibility Wind Speed Wind Dir Waves Ship Positions

Seal

Last reported at 2017-Aug-17 11:22 UTC. Time now 2017-Aug-20 09:54 UTC.
Position N 52°46' E 005°07'.

Length 11 m.

Type: Pleasure craft. MMSI: 244660324.

Date/timePositionNaut miles runAvg speedWind from/ knotsBaromVisibWave heightAir tempDewpointWater temp
2017-Aug-17 11:22N 52°46' E 005°07'  
2017-Aug-13 15:41N 52°46' E 005°07'0 0.0
2017-Aug-13 13:12N 52°46' E 005°07'0 0.0
2017-Aug-13 13:00N 52°46' E 005°07'0 0.0
2017-Aug-13 12:30N 52°46' E 005°07'0 0.0
2017-Aug-13 12:00N 52°46' E 005°07'0 0.0
2017-Aug-13 11:30N 52°46' E 005°07'1 2.7
2017-Aug-13 11:00N 52°47' E 005°08'2 4.0
2017-Aug-13 10:30N 52°49' E 005°08'2 4.2
2017-Aug-13 10:00N 52°52' E 005°08'2 4.2
2017-Aug-13 09:30N 52°54' E 005°07'2 4.1
2017-Aug-13 09:00N 52°55' E 005°04'1 2.6
2017-Aug-13 08:31N 52°56' E 005°03'0 0.9
2017-Aug-13 07:59N 52°56' E 005°02'1 2.2
2017-Aug-13 07:30N 52°57' E 005°01'3 5.7
2017-Aug-13 07:00N 52°59' E 004°57'3 6.9
2017-Aug-13 06:30N 52°60' E 004°52'2 4.4
2017-Aug-13 05:59N 53°02' E 004°51'1 0.0
2017-Aug-12 10:00N 53°03' E 004°52'2 3.1
2017-Aug-12 09:29N 53°01' E 004°50'3 6.9
2017-Aug-12 09:00N 52°59' E 004°46'4 7.2
2017-Aug-12 08:30N 52°57' E 004°42'4 7.1
2017-Aug-12 08:00N 52°53' E 004°39'3 6.9
2017-Aug-12 07:30N 52°50' E 004°37'12 7.5
2017-Aug-12 05:54N 52°38' E 004°35'3 7.6
2017-Aug-12 05:30N 52°35' E 004°34'4 7.6
2017-Aug-12 05:00N 52°31' E 004°34'3 7.0
2017-Aug-12 04:30N 52°28' E 004°32'1 1.9
2017-Aug-12 03:59N 52°27' E 004°34'0 0.0
2017-Aug-12 03:29N 52°27' E 004°34'0 0.0
2017-Aug-12 02:59N 52°27' E 004°34'0 0.0
2017-Aug-12 02:29N 52°27' E 004°34'0 0.0
2017-Aug-12 01:59N 52°27' E 004°34'0 0.0
2017-Aug-12 01:23N 52°27' E 004°34'0 0.0
2017-Aug-12 00:53N 52°27' E 004°34'0 0.0
2017-Aug-12 00:26N 52°27' E 004°34'0 0.0
2017-Aug-11 23:59N 52°27' E 004°34'0 0.0
2017-Aug-11 23:29N 52°27' E 004°34'0 0.0
2017-Aug-11 22:59N 52°27' E 004°34'0 0.0
2017-Aug-11 22:29N 52°27' E 004°34'0 0.0
2017-Aug-11 21:53N 52°27' E 004°34'0 0.0
2017-Aug-11 21:26N 52°27' E 004°34'0 0.0
2017-Aug-11 20:59N 52°27' E 004°34'0 0.0
2017-Aug-11 20:29N 52°27' E 004°34'0 0.0
2017-Aug-11 19:59N 52°27' E 004°34'0 0.0
2017-Aug-11 10:58N 52°27' E 004°34'0 0.0
2017-Aug-11 10:28N 52°27' E 004°34'0 0.0
2017-Aug-11 09:58N 52°27' E 004°34'0 0.0
2017-Aug-11 09:28N 52°27' E 004°34'0 0.0
2017-Aug-11 08:58N 52°27' E 004°34'1 2.5
2017-Aug-11 08:30N 52°28' E 004°32'2 4.3
2017-Aug-11 08:00N 52°26' E 004°30'3 5.0
2017-Aug-11 07:29N 52°24' E 004°28'2 5.1
2017-Aug-11 07:00N 52°22' E 004°25'3 5.5
2017-Aug-11 06:30N 52°20' E 004°23'3 5.6
2017-Aug-11 06:00N 52°17' E 004°21'3 6.1
2017-Aug-11 05:30N 52°15' E 004°18'3 6.4
2017-Aug-11 05:00N 52°12' E 004°15'3 6.7
2017-Aug-11 04:30N 52°10' E 004°11'3 6.8
2017-Aug-11 04:00N 52°07' E 004°07'3 6.1
2017-Aug-11 03:30N 52°05' E 004°05'3 6.8
2017-Aug-11 03:00N 52°02' E 004°01'3 6.2
2017-Aug-11 02:30N 51°60' E 003°58'611.9
2017-Aug-11 02:00N 51°57' E 003°49'0 0.0
2017-Aug-11 01:30N 51°57' E 003°49'0 0.0
2017-Aug-11 01:00N 51°57' E 003°49'9 1.9
2017-Aug-10 20:13N 51°51' E 003°59'0 0.0
2017-Aug-10 20:00N 51°51' E 003°59'2 4.4
2017-Aug-10 19:30N 51°50' E 004°02'1 1.5
2017-Aug-10 19:00N 51°49' E 004°03'0 0.4
2017-Aug-10 18:30N 51°49' E 004°03'0 0.0
2017-Aug-10 18:00N 51°49' E 004°03'  
Track history (hours):
 
Tides and Currents Weather Stations Pressure Air Temp Water Temp Dewpoint Dewpoint Depression Visibility Wind Speed Wind Dir Waves Ship Positions

Seal

Last reported at 2017-Aug-17 11:22 UTC. Time now 2017-Aug-20 09:54 UTC.
Position N 52°46' E 005°07'.

Length 11 m.

Type: Pleasure craft. MMSI: 244660324.

Date/timePositionNaut miles runAvg speedWind from/ knotsBaromVisibWave heightAir tempDewpointWater temp
2017-Aug-17 11:22N 52°46' E 005°07'  
2017-Aug-13 15:41N 52°46' E 005°07'0 0.0
2017-Aug-13 13:12N 52°46' E 005°07'0 0.0
2017-Aug-13 13:00N 52°46' E 005°07'0 0.0
2017-Aug-13 12:30N 52°46' E 005°07'0 0.0
2017-Aug-13 12:00N 52°46' E 005°07'0 0.0
2017-Aug-13 11:30N 52°46' E 005°07'1 2.7
2017-Aug-13 11:00N 52°47' E 005°08'2 4.0
2017-Aug-13 10:30N 52°49' E 005°08'2 4.2
2017-Aug-13 10:00N 52°52' E 005°08'2 4.2
2017-Aug-13 09:30N 52°54' E 005°07'2 4.1
2017-Aug-13 09:00N 52°55' E 005°04'1 2.6
2017-Aug-13 08:31N 52°56' E 005°03'0 0.9
2017-Aug-13 07:59N 52°56' E 005°02'1 2.2
2017-Aug-13 07:30N 52°57' E 005°01'3 5.7
2017-Aug-13 07:00N 52°59' E 004°57'3 6.9
2017-Aug-13 06:30N 52°60' E 004°52'2 4.4
2017-Aug-13 05:59N 53°02' E 004°51'1 0.0
2017-Aug-12 10:00N 53°03' E 004°52'2 3.1
2017-Aug-12 09:29N 53°01' E 004°50'3 6.9
2017-Aug-12 09:00N 52°59' E 004°46'4 7.2
2017-Aug-12 08:30N 52°57' E 004°42'4 7.1
2017-Aug-12 08:00N 52°53' E 004°39'3 6.9
2017-Aug-12 07:30N 52°50' E 004°37'12 7.5
2017-Aug-12 05:54N 52°38' E 004°35'3 7.6
2017-Aug-12 05:30N 52°35' E 004°34'4 7.6
2017-Aug-12 05:00N 52°31' E 004°34'3 7.0
2017-Aug-12 04:30N 52°28' E 004°32'1 1.9
2017-Aug-12 03:59N 52°27' E 004°34'0 0.0
2017-Aug-12 03:29N 52°27' E 004°34'0 0.0
2017-Aug-12 02:59N 52°27' E 004°34'0 0.0
2017-Aug-12 02:29N 52°27' E 004°34'0 0.0
2017-Aug-12 01:59N 52°27' E 004°34'0 0.0
2017-Aug-12 01:23N 52°27' E 004°34'0 0.0
2017-Aug-12 00:53N 52°27' E 004°34'0 0.0
2017-Aug-12 00:26N 52°27' E 004°34'0 0.0
2017-Aug-11 23:59N 52°27' E 004°34'0 0.0
2017-Aug-11 23:29N 52°27' E 004°34'0 0.0
2017-Aug-11 22:59N 52°27' E 004°34'0 0.0
2017-Aug-11 22:29N 52°27' E 004°34'0 0.0
2017-Aug-11 21:53N 52°27' E 004°34'0 0.0
2017-Aug-11 21:26N 52°27' E 004°34'0 0.0
2017-Aug-11 20:59N 52°27' E 004°34'0 0.0
2017-Aug-11 20:29N 52°27' E 004°34'0 0.0
2017-Aug-11 19:59N 52°27' E 004°34'0 0.0
2017-Aug-11 10:58N 52°27' E 004°34'0 0.0
2017-Aug-11 10:28N 52°27' E 004°34'0 0.0
2017-Aug-11 09:58N 52°27' E 004°34'0 0.0
2017-Aug-11 09:28N 52°27' E 004°34'0 0.0
2017-Aug-11 08:58N 52°27' E 004°34'1 2.5
2017-Aug-11 08:30N 52°28' E 004°32'2 4.3
2017-Aug-11 08:00N 52°26' E 004°30'3 5.0
2017-Aug-11 07:29N 52°24' E 004°28'2 5.1
2017-Aug-11 07:00N 52°22' E 004°25'3 5.5
2017-Aug-11 06:30N 52°20' E 004°23'3 5.6
2017-Aug-11 06:00N 52°17' E 004°21'3 6.1
2017-Aug-11 05:30N 52°15' E 004°18'3 6.4
2017-Aug-11 05:00N 52°12' E 004°15'3 6.7
2017-Aug-11 04:30N 52°10' E 004°11'3 6.8
2017-Aug-11 04:00N 52°07' E 004°07'3 6.1
2017-Aug-11 03:30N 52°05' E 004°05'3 6.8
2017-Aug-11 03:00N 52°02' E 004°01'3 6.2
2017-Aug-11 02:30N 51°60' E 003°58'611.9
2017-Aug-11 02:00N 51°57' E 003°49'0 0.0
2017-Aug-11 01:30N 51°57' E 003°49'0 0.0
2017-Aug-11 01:00N 51°57' E 003°49'9 1.9
2017-Aug-10 20:13N 51°51' E 003°59'0 0.0
2017-Aug-10 20:00N 51°51' E 003°59'2 4.4
2017-Aug-10 19:30N 51°50' E 004°02'1 1.5
2017-Aug-10 19:00N 51°49' E 004°03'0 0.4
2017-Aug-10 18:30N 51°49' E 004°03'0 0.0
2017-Aug-10 18:00N 51°49' E 004°03'  

Dump ship's entire track history